Time,TemperatureF,DewpointF,PressureIn,WindDirection,WindDirectionDegrees,WindSpeedMPH,WindSpeedGustMPH,Humidity,HourlyPrecipIn,Conditions,Clouds,dailyrainin,SoftwareType,DateUTC
2013-01-07 00:00:00,31.0,26.0,30.00,ESE,102,0.0,0.0,81,-99.99,,,-99.99,,2013-01-07 05:00:00,
2013-01-07 00:22:00,31.0,26.0,30.00,ESE,102,0.0,0.0,81,-99.99,,,-99.99,,2013-01-07 05:22:00,
2013-01-07 00:33:00,31.0,26.0,30.00,ESE,102,0.0,0.0,81,-99.99,,,-99.99,,2013-01-07 05:33:00,
2013-01-07 00:43:00,31.0,26.0,30.00,ESE,102,0.0,0.0,81,-99.99,,,-99.99,,2013-01-07 05:43:00,
2013-01-07 00:53:00,31.0,26.0,30.00,ESE,102,0.0,0.0,81,-99.99,,,-99.99,,2013-01-07 05:53:00,
2013-01-07 01:00:00,30.0,25.0,30.03,ENE,64,0.0,-999.0,83,-99.99,,,-99.99,,2013-01-07 06:00:00,
2013-01-07 01:32:00,30.0,25.0,30.03,ENE,64,0.0,-999.0,83,-99.99,,,-99.99,,2013-01-07 06:32:00,
2013-01-07 01:42:00,30.0,25.0,30.03,ENE,64,0.0,-999.0,83,-99.99,,,-99.99,,2013-01-07 06:42:00,
2013-01-07 01:52:00,30.0,25.0,30.03,ENE,64,0.0,-999.0,83,-99.99,,,-99.99,,2013-01-07 06:52:00,
2013-01-07 02:00:00,28.0,24.0,30.06,WNW,290,0.0,0.0,86,-99.99,,,-99.99,,2013-01-07 07:00:00,
2013-01-07 02:22:00,28.0,24.0,30.06,WNW,290,0.0,0.0,86,-99.99,,,-99.99,,2013-01-07 07:22:00,
2013-01-07 02:33:00,28.0,24.0,30.06,WNW,290,0.0,0.0,86,-99.99,,,-99.99,,2013-01-07 07:33:00,
2013-01-07 02:43:00,28.0,24.0,30.06,WNW,290,0.0,0.0,86,-99.99,,,-99.99,,2013-01-07 07:43:00,
2013-01-07 02:53:00,28.0,24.0,30.06,WNW,290,0.0,0.0,86,-99.99,,,-99.99,,2013-01-07 07:53:00,
2013-01-07 03:00:00,30.0,27.0,30.06,NW,321,0.0,4.0,88,-99.99,,,-99.99,,2013-01-07 08:00:00,
2013-01-07 03:22:00,30.0,27.0,30.06,NW,321,0.0,4.0,88,-99.99,,,-99.99,,2013-01-07 08:22:00,
2013-01-07 03:33:00,30.0,27.0,30.06,NW,321,0.0,4.0,88,-99.99,,,-99.99,,2013-01-07 08:33:00,
2013-01-07 03:43:00,30.0,27.0,30.06,NW,321,0.0,4.0,88,-99.99,,,-99.99,,2013-01-07 08:43:00,
2013-01-07 03:53:00,30.0,27.0,30.06,NW,321,0.0,4.0,88,-99.99,,,-99.99,,2013-01-07 08:53:00,
2013-01-07 04:00:00,33.0,28.0,30.09,NNW,339,2.0,6.0,84,-99.99,,,-99.99,,2013-01-07 09:00:00,
2013-01-07 04:23:00,33.0,28.0,30.09,NNW,339,2.0,6.0,84,-99.99,,,-99.99,,2013-01-07 09:23:00,
2013-01-07 04:32:00,33.0,28.0,30.09,NNW,339,2.0,6.0,84,-99.99,,,-99.99,,2013-01-07 09:32:00,
2013-01-07 04:42:00,33.0,28.0,30.09,NNW,339,2.0,6.0,84,-99.99,,,-99.99,,2013-01-07 09:42:00,
2013-01-07 04:53:00,33.0,28.0,30.09,NNW,339,2.0,6.0,84,-99.99,,,-99.99,,2013-01-07 09:53:00,
2013-01-07 05:00:00,36.0,27.0,30.09,SSW,203,0.0,8.0,70,-99.99,,,-99.99,,2013-01-07 10:00:00,
2013-01-07 05:22:00,36.0,27.0,30.09,SSW,203,0.0,8.0,70,-99.99,,,-99.99,,2013-01-07 10:22:00,
2013-01-07 05:33:00,36.0,27.0,30.09,SSW,203,0.0,8.0,70,-99.99,,,-99.99,,2013-01-07 10:33:00,
2013-01-07 05:43:00,36.0,27.0,30.09,SSW,203,0.0,8.0,70,-99.99,,,-99.99,,2013-01-07 10:43:00,
2013-01-07 05:52:00,36.0,27.0,30.09,SSW,203,0.0,8.0,70,-99.99,,,-99.99,,2013-01-07 10:52:00,
2013-01-07 06:00:00,33.0,28.0,30.12,West,275,0.0,7.0,80,-99.99,,,-99.99,,2013-01-07 11:00:00,
2013-01-07 06:23:00,33.0,28.0,30.12,West,275,0.0,7.0,80,-99.99,,,-99.99,,2013-01-07 11:23:00,
2013-01-07 06:33:00,33.0,28.0,30.12,West,275,0.0,7.0,80,-99.99,,,-99.99,,2013-01-07 11:33:00,
2013-01-07 06:43:00,33.0,28.0,30.12,West,275,0.0,7.0,80,-99.99,,,-99.99,,2013-01-07 11:43:00,
2013-01-07 06:53:00,33.0,28.0,30.12,West,275,0.0,7.0,80,-99.99,,,-99.99,,2013-01-07 11:53:00,
2013-01-07 07:00:00,33.0,28.0,30.18,NW,306,3.0,7.0,82,-99.99,,,-99.99,,2013-01-07 12:00:00,
2013-01-07 07:23:00,33.0,28.0,30.18,NW,306,3.0,7.0,82,-99.99,,,-99.99,,2013-01-07 12:23:00,
2013-01-07 07:33:00,33.0,28.0,30.18,NW,306,3.0,7.0,82,-99.99,,,-99.99,,2013-01-07 12:33:00,
2013-01-07 07:43:00,33.0,28.0,30.18,NW,306,3.0,7.0,82,-99.99,,,-99.99,,2013-01-07 12:43:00,
2013-01-07 07:53:00,33.0,28.0,30.18,NW,306,3.0,7.0,82,-99.99,,,-99.99,,2013-01-07 12:53:00,
2013-01-07 08:00:00,38.0,28.0,30.21,NW,312,7.0,12.0,67,-99.99,,,-99.99,,2013-01-07 13:00:00,
2013-01-07 08:23:00,38.0,28.0,30.21,NW,312,7.0,12.0,67,-99.99,,,-99.99,,2013-01-07 13:23:00,
2013-01-07 08:33:00,38.0,28.0,30.21,NW,312,7.0,12.0,67,-99.99,,,-99.99,,2013-01-07 13:33:00,
2013-01-07 08:43:00,38.0,28.0,30.21,NW,312,7.0,12.0,67,-99.99,,,-99.99,,2013-01-07 13:43:00,
2013-01-07 08:53:00,38.0,28.0,30.21,NW,312,7.0,12.0,67,-99.99,,,-99.99,,2013-01-07 13:53:00,
2013-01-07 09:00:00,41.0,28.0,30.24,WNW,283,2.0,17.0,58,-99.99,,,-99.99,,2013-01-07 14:00:00,
2013-01-07 09:23:00,41.0,28.0,30.24,WNW,283,2.0,17.0,58,-99.99,,,-99.99,,2013-01-07 14:23:00,
2013-01-07 09:33:00,41.0,28.0,30.24,WNW,283,2.0,17.0,58,-99.99,,,-99.99,,2013-01-07 14:33:00,
2013-01-07 09:43:00,41.0,28.0,30.24,WNW,283,2.0,17.0,58,-99.99,,,-99.99,,2013-01-07 14:43:00,
2013-01-07 09:53:00,41.0,28.0,30.24,WNW,283,2.0,17.0,58,-99.99,,,-99.99,,2013-01-07 14:53:00,
2013-01-07 10:00:00,42.0,24.0,30.27,NNW,332,9.0,21.0,49,-99.99,,,-99.99,,2013-01-07 15:00:00,
2013-01-07 10:23:00,42.0,24.0,30.27,NNW,332,9.0,21.0,49,-99.99,,,-99.99,,2013-01-07 15:23:00,
2013-01-07 10:33:00,42.0,24.0,30.27,NNW,332,9.0,21.0,49,-99.99,,,-99.99,,2013-01-07 15:33:00,
2013-01-07 10:43:00,42.0,24.0,30.27,NNW,332,9.0,21.0,49,-99.99,,,-99.99,,2013-01-07 15:43:00,
2013-01-07 10:53:00,42.0,24.0,30.27,NNW,332,9.0,21.0,49,-99.99,,,-99.99,,2013-01-07 15:53:00,
2013-01-07 11:00:00,42.0,23.0,30.30,NW,318,7.0,17.0,45,-99.99,,,-99.99,,2013-01-07 16:00:00,
2013-01-07 11:23:00,42.0,23.0,30.30,NW,318,7.0,17.0,45,-99.99,,,-99.99,,2013-01-07 16:23:00,
2013-01-07 11:33:00,42.0,23.0,30.30,NW,318,7.0,17.0,45,-99.99,,,-99.99,,2013-01-07 16:33:00,
2013-01-07 11:43:00,42.0,23.0,30.30,NW,318,7.0,17.0,45,-99.99,,,-99.99,,2013-01-07 16:43:00,
2013-01-07 11:53:00,42.0,23.0,30.30,NW,318,7.0,17.0,45,-99.99,,,-99.99,,2013-01-07 16:53:00,
2013-01-07 12:00:00,43.0,22.0,30.30,NNW,341,5.0,18.0,43,-99.99,,,-99.99,,2013-01-07 17:00:00,
2013-01-07 12:23:00,43.0,22.0,30.30,NNW,341,5.0,18.0,43,-99.99,,,-99.99,,2013-01-07 17:23:00,
2013-01-07 12:33:00,43.0,22.0,30.30,NNW,341,5.0,18.0,43,-99.99,,,-99.99,,2013-01-07 17:33:00,
2013-01-07 12:43:00,43.0,22.0,30.30,NNW,341,5.0,18.0,43,-99.99,,,-99.99,,2013-01-07 17:43:00,
2013-01-07 12:53:00,43.0,22.0,30.30,NNW,341,5.0,18.0,43,-99.99,,,-99.99,,2013-01-07 17:53:00,
2013-01-07 13:00:00,43.0,21.0,30.30,NW,313,6.0,18.0,40,-99.99,,,-99.99,,2013-01-07 18:00:00,
2013-01-07 13:23:00,43.0,21.0,30.30,NW,313,6.0,18.0,40,-99.99,,,-99.99,,2013-01-07 18:23:00,
2013-01-07 13:33:00,43.0,21.0,30.30,NW,313,6.0,18.0,40,-99.99,,,-99.99,,2013-01-07 18:33:00,
2013-01-07 13:43:00,43.0,21.0,30.30,NW,313,6.0,18.0,40,-99.99,,,-99.99,,2013-01-07 18:43:00,
2013-01-07 13:53:00,43.0,21.0,30.30,NW,313,6.0,18.0,40,-99.99,,,-99.99,,2013-01-07 18:53:00,
2013-01-07 14:00:00,44.0,19.0,30.30,North,0,9.0,12.0,36,-99.99,,,-99.99,,2013-01-07 19:00:00,
2013-01-07 14:23:00,44.0,19.0,30.30,North,0,9.0,12.0,36,-99.99,,,-99.99,,2013-01-07 19:23:00,
2013-01-07 14:33:00,44.0,19.0,30.30,North,0,9.0,12.0,36,-99.99,,,-99.99,,2013-01-07 19:33:00,
2013-01-07 14:43:00,44.0,19.0,30.30,North,0,9.0,12.0,36,-99.99,,,-99.99,,2013-01-07 19:43:00,
2013-01-07 14:53:00,44.0,19.0,30.30,North,0,9.0,12.0,36,-99.99,,,-99.99,,2013-01-07 19:53:00,
2013-01-07 15:00:00,44.0,18.0,30.33,NNW,344,5.0,11.0,35,-99.99,,,-99.99,,2013-01-07 20:00:00,
2013-01-07 15:23:00,44.0,18.0,30.33,NNW,344,5.0,11.0,35,-99.99,,,-99.99,,2013-01-07 20:23:00,
2013-01-07 15:33:00,44.0,18.0,30.33,NNW,344,5.0,11.0,35,-99.99,,,-99.99,,2013-01-07 20:33:00,
2013-01-07 15:43:00,44.0,18.0,30.33,NNW,344,5.0,11.0,35,-99.99,,,-99.99,,2013-01-07 20:43:00,
2013-01-07 15:53:00,44.0,18.0,30.33,NNW,344,5.0,11.0,35,-99.99,,,-99.99,,2013-01-07 20:53:00,
2013-01-07 16:00:00,43.0,17.0,30.36,WNW,292,3.0,8.0,35,-99.99,,,-99.99,,2013-01-07 21:00:00,
2013-01-07 16:23:00,43.0,17.0,30.36,WNW,292,3.0,8.0,35,-99.99,,,-99.99,,2013-01-07 21:23:00,
2013-01-07 16:33:00,43.0,17.0,30.36,WNW,292,3.0,8.0,35,-99.99,,,-99.99,,2013-01-07 21:33:00,
2013-01-07 16:43:00,43.0,17.0,30.36,WNW,292,3.0,8.0,35,-99.99,,,-99.99,,2013-01-07 21:43:00,
2013-01-07 16:53:00,43.0,17.0,30.36,WNW,292,3.0,8.0,35,-99.99,,,-99.99,,2013-01-07 21:53:00,
2013-01-07 17:00:00,39.0,20.0,30.36,North,352,3.0,7.0,45,-99.99,,,-99.99,,2013-01-07 22:00:00,
2013-01-07 17:23:00,39.0,20.0,30.36,North,352,3.0,7.0,45,-99.99,,,-99.99,,2013-01-07 22:23:00,
2013-01-07 17:33:00,39.0,20.0,30.36,North,352,3.0,7.0,45,-99.99,,,-99.99,,2013-01-07 22:33:00,
2013-01-07 17:43:00,39.0,20.0,30.36,North,352,3.0,7.0,45,-99.99,,,-99.99,,2013-01-07 22:43:00,
2013-01-07 17:53:00,39.0,20.0,30.36,North,352,3.0,7.0,45,-99.99,,,-99.99,,2013-01-07 22:53:00,
2013-01-07 18:00:00,35.0,21.0,30.36,NW,310,0.0,4.0,56,-99.99,,,-99.99,,2013-01-07 23:00:00,
2013-01-07 18:23:00,35.0,21.0,30.36,NW,310,0.0,4.0,56,-99.99,,,-99.99,,2013-01-07 23:23:00,
2013-01-07 18:33:00,35.0,21.0,30.36,NW,310,0.0,4.0,56,-99.99,,,-99.99,,2013-01-07 23:33:00,
2013-01-07 18:43:00,35.0,21.0,30.36,NW,310,0.0,4.0,56,-99.99,,,-99.99,,2013-01-07 23:43:00,
2013-01-07 18:53:00,35.0,21.0,30.36,NW,310,0.0,4.0,56,-99.99,,,-99.99,,2013-01-07 23:53:00,
2013-01-07 19:00:00,32.0,21.0,30.36,ENE,67,0.0,0.0,63,-99.99,,,-99.99,,2013-01-08 00:00:00,
2013-01-07 19:23:00,32.0,21.0,30.36,ENE,67,0.0,0.0,63,-99.99,,,-99.99,,2013-01-08 00:23:00,
2013-01-07 19:33:00,32.0,21.0,30.36,ENE,67,0.0,0.0,63,-99.99,,,-99.99,,2013-01-08 00:33:00,
2013-01-07 19:43:00,32.0,21.0,30.36,ENE,67,0.0,0.0,63,-99.99,,,-99.99,,2013-01-08 00:43:00,
2013-01-07 19:53:00,32.0,21.0,30.36,ENE,67,0.0,0.0,63,-99.99,,,-99.99,,2013-01-08 00:53:00,
2013-01-07 20:00:00,29.0,19.0,30.36,South,184,0.0,0.0,67,-99.99,,,-99.99,,2013-01-08 01:00:00,
2013-01-07 20:22:00,29.0,19.0,30.36,South,184,0.0,0.0,67,-99.99,,,-99.99,,2013-01-08 01:22:00,
2013-01-07 20:33:00,29.0,19.0,30.36,South,184,0.0,0.0,67,-99.99,,,-99.99,,2013-01-08 01:33:00,
2013-01-07 20:42:00,29.0,19.0,30.36,South,184,0.0,0.0,67,-99.99,,,-99.99,,2013-01-08 01:42:00,
2013-01-07 20:53:00,29.0,19.0,30.36,South,184,0.0,0.0,67,-99.99,,,-99.99,,2013-01-08 01:53:00,
2013-01-07 21:00:00,29.0,20.0,30.36,NW,319,0.0,0.0,71,-99.99,,,-99.99,,2013-01-08 02:00:00,
2013-01-07 21:22:00,29.0,20.0,30.36,NW,319,0.0,0.0,71,-99.99,,,-99.99,,2013-01-08 02:22:00,
2013-01-07 21:33:00,29.0,20.0,30.36,NW,319,0.0,0.0,71,-99.99,,,-99.99,,2013-01-08 02:33:00,
2013-01-07 21:43:00,29.0,20.0,30.36,NW,319,0.0,0.0,71,-99.99,,,-99.99,,2013-01-08 02:43:00,
2013-01-07 21:53:00,29.0,20.0,30.36,NW,319,0.0,0.0,71,-99.99,,,-99.99,,2013-01-08 02:53:00,
2013-01-07 22:00:00,27.0,19.0,30.36,East,84,0.0,0.0,76,-99.99,,,-99.99,,2013-01-08 03:00:00,
2013-01-07 22:22:00,27.0,19.0,30.36,East,84,0.0,0.0,76,-99.99,,,-99.99,,2013-01-08 03:22:00,
2013-01-07 22:33:00,27.0,19.0,30.36,East,84,0.0,0.0,76,-99.99,,,-99.99,,2013-01-08 03:33:00,
2013-01-07 22:43:00,27.0,19.0,30.36,East,84,0.0,0.0,76,-99.99,,,-99.99,,2013-01-08 03:43:00,
2013-01-07 22:53:00,27.0,19.0,30.36,East,84,0.0,0.0,76,-99.99,,,-99.99,,2013-01-08 03:53:00,
2013-01-07 23:00:00,26.0,20.0,30.36,WSW,254,0.0,0.0,82,-99.99,,,-99.99,,2013-01-08 04:00:00,
2013-01-07 23:22:00,26.0,20.0,30.36,WSW,254,0.0,0.0,82,-99.99,,,-99.99,,2013-01-08 04:22:00,
2013-01-07 23:32:00,26.0,20.0,30.36,WSW,254,0.0,0.0,82,-99.99,,,-99.99,,2013-01-08 04:32:00,
2013-01-07 23:43:00,26.0,20.0,30.36,WSW,254,0.0,0.0,82,-99.99,,,-99.99,,2013-01-08 04:43:00,
2013-01-07 23:52:00,26.0,20.0,30.36,WSW,254,0.0,0.0,82,-99.99,,,-99.99,,2013-01-08 04:52:00,